createdAt,value
2022-07-29T00:02:34.229Z,13.60
2022-07-29T00:07:36.541Z,13.60
2022-07-29T00:12:38.744Z,14.40
2022-07-29T00:17:41.179Z,13.90
2022-07-29T00:22:43.405Z,14.30
2022-07-29T00:27:47.139Z,14.10
2022-07-29T00:32:49.591Z,15.20
2022-07-29T00:37:52.108Z,14.20
2022-07-29T00:42:54.366Z,14.80
2022-07-29T00:47:57.137Z,14.60
2022-07-29T00:52:59.881Z,13.80
2022-07-29T00:58:02.234Z,14.10
2022-07-29T01:03:04.702Z,13.90
2022-07-29T01:08:07.393Z,13.90
2022-07-29T01:13:12.822Z,14.50
2022-07-29T01:18:22.125Z,13.80
2022-07-29T01:24:00.640Z,13.30
2022-07-29T01:29:25.551Z,13.90
2022-07-29T01:34:40.745Z,14.20
2022-07-29T01:39:47.056Z,14.20
2022-07-29T01:45:02.961Z,13.50
2022-07-29T01:50:11.020Z,14.30
2022-07-29T01:55:17.434Z,13.90
2022-07-29T02:00:20.838Z,13.90
2022-07-29T02:05:27.997Z,14.10
2022-07-29T02:10:33.617Z,14.70
2022-07-29T02:15:37.405Z,14.00
2022-07-29T02:20:41.103Z,14.60
2022-07-29T02:25:44.410Z,14.90
2022-07-29T02:30:48.873Z,15.40
2022-07-29T02:35:53.083Z,15.50
2022-07-29T02:40:57.760Z,14.90
2022-07-29T02:46:01.484Z,15.90
2022-07-29T02:51:13.372Z,15.90
2022-07-29T02:56:38.605Z,15.20
2022-07-29T03:01:45.345Z,15.70
2022-07-29T03:06:48.646Z,15.90
2022-07-29T03:11:51.209Z,16.50
2022-07-29T03:16:54.029Z,15.90
2022-07-29T03:21:57.344Z,16.70
2022-07-29T03:27:00.673Z,16.10
2022-07-29T03:32:08.281Z,16.90
2022-07-29T03:37:11.016Z,17.20
2022-07-29T03:42:16.092Z,17.30
2022-07-29T03:47:23.250Z,17.30
2022-07-29T03:52:46.249Z,17.50
2022-07-29T03:57:49.086Z,17.60
2022-07-29T04:02:52.141Z,18.10
2022-07-29T04:07:54.332Z,17.60
2022-07-29T04:12:56.477Z,17.30
2022-07-29T04:17:59.626Z,17.80
2022-07-29T04:28:04.619Z,17.50
2022-07-29T04:33:08.173Z,17.60
2022-07-29T04:38:15.533Z,17.80
2022-07-29T04:43:22.388Z,18.30
2022-07-29T04:48:28.690Z,18.40
2022-07-29T04:53:31.242Z,18.60
2022-07-29T04:58:36.094Z,19.40
2022-07-29T05:03:38.331Z,19.60
2022-07-29T05:08:41.945Z,19.50
2022-07-29T05:13:46.341Z,19.80
2022-07-29T05:18:49.449Z,19.10
2022-07-29T05:23:51.608Z,19.90
2022-07-29T05:28:54.875Z,20.00
2022-07-29T05:33:57.241Z,19.80
2022-07-29T05:39:00.800Z,20.20
2022-07-29T05:44:03.134Z,19.70
2022-07-29T05:49:07.733Z,19.30
2022-07-29T05:54:10.391Z,19.00
2022-07-29T05:59:18.228Z,19.20
2022-07-29T06:04:21.147Z,18.40
2022-07-29T06:09:23.947Z,17.80
2022-07-29T06:14:27.387Z,18.30
2022-07-29T06:19:29.994Z,16.50
2022-07-29T06:24:32.082Z,17.10
2022-07-29T06:29:34.233Z,17.70
2022-07-29T06:34:38.611Z,16.10
2022-07-29T06:39:42.871Z,16.20
2022-07-29T06:44:45.562Z,15.10
2022-07-29T06:49:47.746Z,14.90
2022-07-29T06:54:49.911Z,14.70
2022-07-29T06:59:52.063Z,14.30
2022-07-29T07:04:54.248Z,14.20
2022-07-29T07:09:56.464Z,14.70
2022-07-29T07:14:58.572Z,14.50
2022-07-29T07:20:00.784Z,14.70
2022-07-29T07:25:03.060Z,14.40
2022-07-29T07:30:09.413Z,14.30
2022-07-29T07:35:11.849Z,14.10
2022-07-29T07:40:18.771Z,14.10
2022-07-29T07:45:21.287Z,14.30
2022-07-29T07:50:23.531Z,13.70
2022-07-29T07:55:26.448Z,13.70
2022-07-29T08:00:28.698Z,14.20
2022-07-29T08:05:30.974Z,13.80
2022-07-29T08:10:58.987Z,13.70
2022-07-29T08:16:02.510Z,13.60
2022-07-29T08:21:05.247Z,13.80
2022-07-29T08:26:11.911Z,13.90
2022-07-29T08:31:14.615Z,13.90
2022-07-29T08:36:16.811Z,13.80
2022-07-29T08:41:20.111Z,13.50
2022-07-29T08:46:22.779Z,13.50
2022-07-29T08:51:27.249Z,13.10
2022-07-29T08:56:30.810Z,12.50
2022-07-29T09:01:42.399Z,13.00
2022-07-29T09:06:48.702Z,12.50
2022-07-29T09:11:54.500Z,12.90
2022-07-29T09:16:57.883Z,11.80
2022-07-29T09:22:04.253Z,11.90
2022-07-29T09:27:20.216Z,11.90
2022-07-29T09:32:22.391Z,11.90
2022-07-29T09:37:28.949Z,11.50
2022-07-29T09:42:33.484Z,10.30
2022-07-29T09:47:49.660Z,10.80
2022-07-29T09:52:54.176Z,10.30
2022-07-29T09:58:16.779Z,9.30
2022-07-29T10:03:19.609Z,8.70
2022-07-29T10:08:27.669Z,7.60
2022-07-29T10:13:29.907Z,7.30
2022-07-29T10:18:33.178Z,7.20
2022-07-29T10:23:47.003Z,6.20
2022-07-29T10:28:49.705Z,7.00
2022-07-29T10:33:57.611Z,6.70
2022-07-29T10:39:15.976Z,5.80
2022-07-29T10:44:23.183Z,4.90
2022-07-29T10:49:27.925Z,4.20
2022-07-29T10:54:36.186Z,3.80
2022-07-29T10:59:38.345Z,4.20
2022-07-29T11:04:48.601Z,4.60
2022-07-29T11:15:58.266Z,5.40
2022-07-29T11:21:00.739Z,4.80
2022-07-29T11:26:23.714Z,3.80
2022-07-29T11:31:46.251Z,4.00
2022-07-29T11:37:10.473Z,3.30
2022-07-29T11:42:28.328Z,3.50
2022-07-29T11:47:38.423Z,2.80
2022-07-29T11:52:49.989Z,2.20
2022-07-29T11:58:03.990Z,2.00
2022-07-29T12:03:11.987Z,2.20
2022-07-29T12:08:21.761Z,1.00
2022-07-29T12:13:37.768Z,1.00
2022-07-29T12:18:40.495Z,1.00
2022-07-29T12:23:59.449Z,1.00
2022-07-29T12:29:11.475Z,1.00
2022-07-29T12:34:17.978Z,1.00
2022-07-29T12:39:21.126Z,1.00
2022-07-29T12:44:23.421Z,1.00
2022-07-29T12:49:25.614Z,1.00
2022-07-29T12:54:27.833Z,1.00
2022-07-29T12:59:30.059Z,1.00
2022-07-29T13:04:34.155Z,1.00
2022-07-29T13:09:44.671Z,1.00
2022-07-29T13:14:48.579Z,1.00
2022-07-29T13:20:05.882Z,1.00
2022-07-29T13:25:11.485Z,1.00
2022-07-29T13:30:13.918Z,1.00
2022-07-29T13:35:16.666Z,1.00
2022-07-29T13:40:18.860Z,1.00
2022-07-29T13:45:21.013Z,1.00
2022-07-29T13:50:23.318Z,1.00
2022-07-29T13:55:25.842Z,1.00
2022-07-29T14:00:28.808Z,1.00
2022-07-29T14:05:31.512Z,1.00
2022-07-29T14:10:33.660Z,1.00
2022-07-29T14:15:35.796Z,1.00
2022-07-29T14:20:41.612Z,1.00
2022-07-29T14:25:44.536Z,1.00
2022-07-29T14:30:46.890Z,1.00
2022-07-29T14:35:49.270Z,1.00
2022-07-29T14:40:51.417Z,1.00
2022-07-29T14:46:01.304Z,1.00
2022-07-29T14:51:09.761Z,1.00
2022-07-29T14:56:35.480Z,1.00
2022-07-29T15:01:35.790Z,1.00
2022-07-29T15:06:38.860Z,1.00
2022-07-29T15:11:40.993Z,1.00
2022-07-29T15:16:43.863Z,1.00
2022-07-29T15:21:50.153Z,1.00
2022-07-29T15:26:52.448Z,1.00
2022-07-29T15:31:55.743Z,1.00
2022-07-29T15:36:58.390Z,1.00
2022-07-29T15:42:01.431Z,1.00
2022-07-29T15:47:04.064Z,1.00
2022-07-29T15:52:09.483Z,1.00
2022-07-29T15:57:12.009Z,1.00
2022-07-29T16:02:14.141Z,1.00
2022-07-29T16:07:16.825Z,1.00
2022-07-29T16:12:19.339Z,1.00
2022-07-29T16:17:21.582Z,1.00
2022-07-29T16:22:23.724Z,1.00
2022-07-29T16:27:37.749Z,1.00
2022-07-29T16:32:40.367Z,1.00
2022-07-29T16:37:42.535Z,1.00
2022-07-29T16:42:46.906Z,1.00
2022-07-29T16:47:49.934Z,1.00
2022-07-29T16:52:52.219Z,1.00
2022-07-29T16:57:54.462Z,1.00
2022-07-29T17:02:56.684Z,1.00
2022-07-29T17:07:58.721Z,1.00
2022-07-29T17:13:01.827Z,1.00
2022-07-29T17:18:12.528Z,1.00
2022-07-29T17:23:15.188Z,1.00
2022-07-29T17:28:17.403Z,1.00
2022-07-29T17:33:19.558Z,1.00
2022-07-29T17:38:21.766Z,1.00
2022-07-29T17:43:23.934Z,1.00
2022-07-29T17:48:27.442Z,1.00
2022-07-29T17:53:29.670Z,1.00
2022-07-29T17:58:34.238Z,1.00
2022-07-29T18:03:37.204Z,1.00
2022-07-29T18:08:40.910Z,1.00
2022-07-29T18:13:43.171Z,1.00
2022-07-29T18:18:46.031Z,1.00
2022-07-29T18:23:50.681Z,1.00
2022-07-29T18:28:52.881Z,1.00
2022-07-29T18:33:59.686Z,1.00
2022-07-29T18:39:02.221Z,1.00
2022-07-29T18:44:05.059Z,1.00
2022-07-29T18:49:07.708Z,1.00
2022-07-29T18:54:10.590Z,1.00
2022-07-29T18:59:16.787Z,1.90
2022-07-29T19:04:19.217Z,2.50
2022-07-29T19:09:21.357Z,3.00
2022-07-29T19:14:23.578Z,4.40
2022-07-29T19:19:25.861Z,4.90
2022-07-29T19:24:28.663Z,5.40
2022-07-29T19:29:32.384Z,5.90
2022-07-29T19:34:34.563Z,6.70
2022-07-29T19:39:36.698Z,7.10
2022-07-29T19:44:39.108Z,6.70
2022-07-29T19:49:41.283Z,8.00
2022-07-29T19:54:43.410Z,7.60
2022-07-29T19:59:45.782Z,8.70
2022-07-29T20:04:48.560Z,10.70
2022-07-29T20:09:52.920Z,11.40
2022-07-29T20:14:55.461Z,10.80
2022-07-29T20:19:59.956Z,11.70
2022-07-29T20:25:02.358Z,12.10
2022-07-29T20:30:04.888Z,14.00
2022-07-29T20:35:11.886Z,13.80
2022-07-29T20:45:17.803Z,15.90
2022-07-29T20:50:24.238Z,17.20
2022-07-29T20:55:28.130Z,18.30
2022-07-29T21:00:31.154Z,19.00
2022-07-29T21:05:33.282Z,19.50
2022-07-29T21:10:35.506Z,20.10
2022-07-29T21:15:38.123Z,20.50
2022-07-29T21:20:40.566Z,20.70
2022-07-29T21:25:42.783Z,20.60
2022-07-29T21:30:46.472Z,21.30
2022-07-29T21:36:26.574Z,22.00
2022-07-29T21:41:12.557Z,21.90
2022-07-29T21:46:16.966Z,22.90
2022-07-29T21:51:19.226Z,23.30
2022-07-29T21:56:21.410Z,23.80
2022-07-29T22:01:26.882Z,24.00
2022-07-29T22:06:29.175Z,24.20
2022-07-29T22:11:31.858Z,24.50
2022-07-29T22:16:34.012Z,24.40
2022-07-29T22:21:36.330Z,24.40
2022-07-29T22:26:38.986Z,24.40
2022-07-29T22:31:41.121Z,24.40
2022-07-29T22:36:43.353Z,24.00
2022-07-29T22:41:45.509Z,25.20
2022-07-29T22:46:47.726Z,23.90
2022-07-29T22:51:50.067Z,24.70
2022-07-29T22:56:52.422Z,24.40
2022-07-29T23:01:56.030Z,25.20
2022-07-29T23:06:58.471Z,24.20
2022-07-29T23:12:00.634Z,25.20
2022-07-29T23:17:03.213Z,25.20
2022-07-29T23:22:05.745Z,25.20
2022-07-29T23:27:07.928Z,25.30
2022-07-29T23:32:10.105Z,25.20
2022-07-29T23:37:12.325Z,25.20
2022-07-29T23:42:14.444Z,25.40
2022-07-29T23:47:16.562Z,25.30
2022-07-29T23:52:18.899Z,24.80
2022-07-29T23:57:23.979Z,25.30
